createdAt,value
2017-05-18T15:35:56.779Z,926.6
2017-05-18T15:36:16.967Z,926.64
2017-05-18T15:36:37.025Z,926.59
2017-05-18T15:36:57.082Z,926.56
2017-05-18T15:37:16.637Z,926.54
2017-05-18T15:37:37.800Z,926.58
2017-05-18T15:37:57.813Z,926.5
2017-05-18T15:38:17.473Z,926.52
2017-05-18T15:38:37.451Z,926.56
2017-05-18T15:38:57.485Z,926.54
2017-05-18T15:39:17.150Z,926.53
2017-05-18T15:39:37.122Z,926.52
2017-05-18T15:39:57.179Z,926.59
2017-05-18T15:40:16.039Z,926.54
2017-05-18T15:40:35.990Z,926.57
2017-05-18T15:40:54.876Z,926.54
2017-05-18T15:41:15.966Z,926.52
2017-05-18T15:41:35.956Z,926.45
2017-05-18T15:41:55.964Z,926.51
2017-05-18T15:42:14.875Z,926.52
2017-05-18T15:42:33.716Z,926.53
2017-05-18T15:42:53.693Z,926.53
2017-05-18T15:43:13.711Z,926.56
2017-05-18T15:43:33.728Z,926.54
2017-05-18T15:43:53.669Z,926.53
2017-05-18T15:44:14.826Z,926.55
2017-05-18T15:44:34.877Z,926.57
2017-05-18T15:44:54.413Z,926.5
2017-05-18T15:45:14.495Z,926.54
2017-05-18T15:45:34.608Z,926.53
2017-05-18T15:45:53.477Z,926.56
2017-05-18T15:46:13.536Z,926.55
2017-05-18T15:46:32.981Z,926.56
2017-05-18T15:47:06.833Z,926.54
2017-05-18T15:47:26.215Z,926.54
2017-05-18T15:47:46.230Z,926.54
2017-05-18T15:48:06.201Z,926.53
2017-05-18T15:48:25.159Z,926.5
2017-05-18T15:48:45.145Z,926.52
2017-05-18T15:49:05.173Z,926.55
2017-05-18T15:49:25.173Z,926.57
2017-05-18T15:49:45.154Z,926.67
2017-05-18T15:50:05.221Z,926.66
2017-05-18T15:50:25.228Z,926.65
2017-05-18T15:50:45.225Z,926.68
2017-05-18T15:51:05.327Z,926.67
2017-05-18T15:51:25.366Z,926.6
2017-05-18T15:51:45.337Z,926.63
2017-05-18T15:52:05.341Z,926.61
2017-05-18T15:52:24.778Z,926.64
2017-05-18T15:52:44.285Z,926.58
2017-05-18T15:53:04.330Z,926.6
2017-05-18T15:53:23.810Z,926.6
2017-05-18T15:53:43.300Z,926.66
2017-05-18T15:54:02.663Z,926.67
2017-05-18T15:54:22.125Z,926.7
2017-05-18T15:54:41.606Z,926.61
2017-05-18T15:55:00.610Z,926.59
2017-05-18T15:55:20.049Z,926.56
2017-05-18T15:55:40.122Z,926.49
2017-05-18T15:56:00.220Z,926.49
2017-05-18T15:56:20.219Z,926.5
2017-05-18T15:56:40.221Z,926.49
2017-05-18T15:56:59.648Z,926.45
2017-05-18T15:57:19.606Z,926.48
2017-05-18T15:57:39.583Z,926.5
2017-05-18T15:57:59.703Z,926.46
2017-05-18T15:58:19.743Z,926.43
2017-05-18T15:58:39.715Z,926.44
2017-05-18T15:58:59.172Z,926.47
2017-05-18T15:59:19.133Z,926.42
2017-05-18T15:59:38.547Z,926.41
2017-05-18T15:59:58.547Z,926.37
2017-05-18T16:00:18.055Z,926.33
2017-05-18T16:00:37.497Z,926.31
2017-05-18T16:00:57.506Z,926.29
2017-05-18T16:01:17.563Z,926.27
2017-05-18T16:01:37.562Z,926.23
2017-05-18T16:01:57.556Z,926.24
2017-05-18T16:02:17.022Z,926.22
2017-05-18T16:02:37.065Z,926.18
2017-05-18T16:02:57.095Z,926.18
2017-05-18T16:03:16.514Z,926.2
2017-05-18T16:03:35.999Z,926.17
2017-05-18T16:03:56.013Z,926.17
2017-05-18T16:04:14.353Z,926.14
2017-05-18T16:04:33.781Z,926.15
2017-05-18T16:04:53.852Z,926.17
2017-05-18T16:05:13.259Z,926.22
2017-05-18T16:05:32.804Z,926.21
2017-05-18T16:05:52.831Z,926.17
2017-05-18T16:06:12.835Z,926.18
2017-05-18T16:06:33.381Z,926.16
2017-05-18T16:06:53.459Z,926.18
2017-05-18T16:07:13.415Z,926.15
2017-05-18T16:07:32.858Z,926.19
2017-05-18T16:07:52.877Z,926.26
2017-05-18T16:08:12.826Z,926.21
2017-05-18T16:08:32.363Z,926.24
2017-05-18T16:08:52.436Z,926.25
2017-05-18T16:09:11.903Z,926.25
2017-05-18T16:09:32.314Z,926.24
2017-05-18T16:09:53.390Z,926.25
2017-05-18T16:10:12.856Z,926.22
2017-05-18T16:10:32.343Z,926.22
2017-05-18T16:10:52.549Z,926.2
2017-05-18T16:11:14.476Z,926.22
2017-05-18T16:11:34.926Z,926.18
2017-05-18T16:11:55.528Z,926.26
2017-05-18T16:12:15.499Z,926.22
2017-05-18T16:12:35.596Z,926.21
2017-05-18T16:12:55.563Z,926.22
2017-05-18T16:13:15.291Z,926.22
2017-05-18T16:13:35.791Z,926.21
2017-05-18T16:13:55.176Z,926.2
2017-05-18T16:14:16.274Z,926.14
2017-05-18T16:14:36.294Z,926.15
2017-05-18T16:14:56.286Z,926.1
2017-05-18T16:15:15.941Z,926.12
2017-05-18T16:15:35.994Z,926.05
2017-05-18T16:15:56.044Z,926.06
2017-05-18T16:16:14.887Z,926.09
2017-05-18T16:16:33.894Z,926.04
2017-05-18T16:16:54.111Z,926.07
2017-05-18T16:17:13.537Z,926.06
2017-05-18T16:17:32.434Z,926.04
2017-05-18T16:17:52.471Z,926.04
2017-05-18T16:18:12.502Z,926.03
2017-05-18T16:18:32.534Z,926.02
2017-05-18T16:19:06.444Z,926.02
2017-05-18T16:19:26.443Z,926.01
2017-05-18T16:19:46.396Z,926
2017-05-18T16:20:05.917Z,926.05
2017-05-18T16:20:26.033Z,926.08
2017-05-18T16:20:46.044Z,926.09
2017-05-18T16:21:05.562Z,926.09
2017-05-18T16:21:25.943Z,926.09
2017-05-18T16:21:46.039Z,926.1
2017-05-18T16:22:06.192Z,926.09
2017-05-18T16:22:26.903Z,926.1
2017-05-18T16:22:46.447Z,926.11
2017-05-18T16:23:39.478Z,926.09
2017-05-18T16:23:59.656Z,926.08
2017-05-18T16:24:19.681Z,926.09
2017-05-18T16:24:39.701Z,926.08
2017-05-18T16:24:59.688Z,926.05
2017-05-18T16:25:19.681Z,926.07
2017-05-18T16:25:39.718Z,926.06
2017-05-18T16:25:59.151Z,926.03
2017-05-18T16:26:19.781Z,926.06
2017-05-18T16:26:39.769Z,926.03
2017-05-18T16:26:59.210Z,926.04
2017-05-18T16:27:19.282Z,926
2017-05-18T16:27:39.266Z,925.98
2017-05-18T16:27:59.571Z,925.96
2017-05-18T16:28:19.913Z,925.96
2017-05-18T16:28:39.949Z,925.9
2017-05-18T16:28:58.824Z,925.88
2017-05-18T16:29:19.303Z,925.87
2017-05-18T16:29:39.304Z,925.89
2017-05-18T16:29:59.550Z,925.86
2017-05-18T16:30:19.021Z,925.86
2017-05-18T16:30:39.003Z,925.85
2017-05-18T16:30:58.529Z,925.85
2017-05-18T16:31:18.021Z,925.87
2017-05-18T16:31:37.431Z,925.83
2017-05-18T16:31:57.426Z,925.83
2017-05-18T16:32:16.918Z,925.82
2017-05-18T16:32:36.310Z,925.81
2017-05-18T16:32:56.455Z,925.83
2017-05-18T16:33:16.445Z,925.83
2017-05-18T16:33:35.969Z,925.77
2017-05-18T16:33:55.892Z,925.75
2017-05-18T16:34:15.343Z,925.78
2017-05-18T16:34:34.191Z,925.76
2017-05-18T16:34:53.642Z,925.75
2017-05-18T16:35:13.738Z,925.74
2017-05-18T16:35:33.951Z,925.66
2017-05-18T16:35:54.252Z,925.7
2017-05-18T16:36:14.937Z,925.68
2017-05-18T16:36:34.436Z,925.72
2017-05-18T16:36:54.469Z,925.69
2017-05-18T16:37:13.564Z,925.71
2017-05-18T16:37:34.313Z,925.69
2017-05-18T16:37:54.397Z,925.7
2017-05-18T16:38:14.472Z,925.71
2017-05-18T16:38:34.656Z,925.74
2017-05-18T16:38:55.086Z,925.71
2017-05-18T16:39:14.764Z,925.74
2017-05-18T16:39:34.239Z,925.74
2017-05-18T16:39:54.342Z,925.77
2017-05-18T16:40:13.176Z,925.73
2017-05-18T16:40:33.990Z,925.73
2017-05-18T16:40:54.052Z,925.7
2017-05-18T16:41:14.195Z,925.66
2017-05-18T16:41:34.258Z,925.7
2017-05-18T16:41:54.487Z,925.67
2017-05-18T16:42:14.772Z,925.63
2017-05-18T16:42:34.270Z,925.63
2017-05-18T16:42:54.392Z,925.65
2017-05-18T16:43:14.406Z,925.67
2017-05-18T16:43:34.674Z,925.69
2017-05-18T16:43:54.257Z,925.68
2017-05-18T16:44:14.474Z,925.71
2017-05-18T16:44:48.344Z,925.69
2017-05-18T16:45:08.456Z,925.7
2017-05-18T16:45:28.523Z,925.7
2017-05-18T16:45:48.013Z,925.73
2017-05-18T16:46:08.495Z,925.74
2017-05-18T16:46:28.668Z,925.72
2017-05-18T16:46:48.814Z,925.76
2017-05-18T16:47:09.314Z,925.74
2017-05-18T16:47:31.397Z,925.76
2017-05-18T16:47:51.388Z,925.73
2017-05-18T16:48:11.443Z,925.77
2017-05-18T16:48:31.446Z,925.78
2017-05-18T16:48:51.442Z,925.78
2017-05-18T16:49:11.426Z,925.79
2017-05-18T16:49:31.541Z,925.81
2017-05-18T16:49:52.555Z,925.8
2017-05-18T16:50:12.022Z,925.79
2017-05-18T16:50:31.569Z,925.8
2017-05-18T16:50:52.330Z,925.79
2017-05-18T16:51:12.807Z,925.82
2017-05-18T16:51:33.773Z,925.83
2017-05-18T16:51:54.048Z,925.88
2017-05-18T16:52:14.314Z,925.82
2017-05-18T16:52:34.505Z,925.86
2017-05-18T16:52:54.518Z,925.85
2017-05-18T16:53:13.930Z,925.82
2017-05-18T16:53:34.020Z,925.86
2017-05-18T16:53:54.076Z,925.83
2017-05-18T16:54:14.061Z,925.83
2017-05-18T16:54:34.052Z,925.86
2017-05-18T16:54:54.034Z,925.85
2017-05-18T16:55:13.504Z,925.81
2017-05-18T16:55:33.018Z,925.81
2017-05-18T16:55:53.663Z,925.78
2017-05-18T16:56:13.647Z,925.79
2017-05-18T16:56:33.641Z,925.77
2017-05-18T16:56:53.668Z,925.78
2017-05-18T16:57:13.370Z,925.76
2017-05-18T16:57:34.404Z,925.72
2017-05-18T16:57:54.315Z,925.73
2017-05-18T16:58:14.527Z,925.74
2017-05-18T16:58:34.076Z,925.69
2017-05-18T16:58:53.528Z,925.68
2017-05-18T16:59:13.588Z,925.69
2017-05-18T16:59:33.608Z,925.69
2017-05-18T16:59:53.650Z,925.67
2017-05-18T17:00:13.118Z,925.67
2017-05-18T17:00:33.074Z,925.63
2017-05-18T17:00:53.087Z,925.63
2017-05-18T17:01:13.134Z,925.61
2017-05-18T17:01:33.111Z,925.59
2017-05-18T17:01:52.617Z,925.64
2017-05-18T17:02:12.697Z,925.62
2017-05-18T17:02:32.746Z,925.6
2017-05-18T17:02:52.723Z,925.6
2017-05-18T17:03:12.715Z,925.62
2017-05-18T17:03:32.747Z,925.59
2017-05-18T17:04:06.602Z,925.61
2017-05-18T17:04:26.028Z,925.62
2017-05-18T17:04:46.021Z,925.59
2017-05-18T17:05:05.480Z,925.64
2017-05-18T17:05:25.499Z,925.61
2017-05-18T17:05:44.892Z,925.62
2017-05-18T17:06:04.905Z,925.6
2017-05-18T17:06:24.933Z,925.58
2017-05-18T17:06:44.915Z,925.6
2017-05-18T17:07:04.926Z,925.57
2017-05-18T17:07:24.880Z,925.6
2017-05-18T17:07:44.842Z,925.56
2017-05-18T17:08:04.250Z,925.56
2017-05-18T17:08:23.733Z,925.57
2017-05-18T17:08:43.735Z,925.54
2017-05-18T17:09:03.717Z,925.56
2017-05-18T17:09:23.712Z,925.55
2017-05-18T17:09:43.695Z,925.53
2017-05-18T17:10:03.687Z,925.54
2017-05-18T17:10:22.565Z,925.53
2017-05-18T17:10:42.686Z,925.53
2017-05-18T17:11:02.734Z,925.5
2017-05-18T17:11:21.586Z,925.49
2017-05-18T17:11:41.549Z,925.5
2017-05-18T17:12:01.504Z,925.47
2017-05-18T17:12:21.520Z,925.48
2017-05-18T17:12:40.863Z,925.52
2017-05-18T17:13:00.876Z,925.51
2017-05-18T17:13:20.936Z,925.49
2017-05-18T17:13:40.916Z,925.45
2017-05-18T17:14:00.896Z,925.5
2017-05-18T17:14:20.338Z,925.47
2017-05-18T17:14:39.849Z,925.49
2017-05-18T17:14:59.924Z,925.47
2017-05-18T17:15:20.431Z,925.47
2017-05-18T17:15:40.411Z,925.49
2017-05-18T17:15:59.797Z,925.47
2017-05-18T17:16:19.780Z,925.48
2017-05-18T17:16:39.198Z,925.5
2017-05-18T17:16:59.226Z,925.47
2017-05-18T17:17:18.637Z,925.47
2017-05-18T17:17:38.630Z,925.5
2017-05-18T17:17:57.448Z,925.46
2017-05-18T17:18:16.936Z,925.48
2017-05-18T17:18:36.930Z,925.47
2017-05-18T17:18:56.958Z,925.48
2017-05-18T17:19:16.405Z,925.44
2017-05-18T17:19:36.402Z,925.47
2017-05-18T17:19:56.397Z,925.46
2017-05-18T17:20:16.418Z,925.47
2017-05-18T17:20:36.483Z,925.43
2017-05-18T17:20:56.538Z,925.46
2017-05-18T17:21:16.542Z,925.45
2017-05-18T17:21:35.978Z,925.42
2017-05-18T17:21:56.041Z,925.44
2017-05-18T17:22:16.024Z,925.44
2017-05-18T17:22:36.084Z,925.41
2017-05-18T17:22:57.389Z,925.44
2017-05-18T17:23:17.685Z,925.45
2017-05-18T17:23:38.071Z,925.38
2017-05-18T17:23:58.383Z,925.41
2017-05-18T17:24:18.366Z,925.39
2017-05-18T17:24:38.403Z,925.39
2017-05-18T17:24:57.837Z,925.4
2017-05-18T17:25:17.779Z,925.4
2017-05-18T17:25:37.783Z,925.38
2017-05-18T17:25:57.749Z,925.38
2017-05-18T17:26:17.801Z,925.39
2017-05-18T17:26:37.813Z,925.36
2017-05-18T17:26:57.856Z,925.39
2017-05-18T17:27:17.827Z,925.38
2017-05-18T17:27:37.855Z,925.41
2017-05-18T17:27:57.371Z,925.4
2017-05-18T17:28:17.479Z,925.35
2017-05-18T17:28:36.925Z,925.36
2017-05-18T17:28:56.983Z,925.37
2017-05-18T17:29:16.421Z,925.39
2017-05-18T17:29:36.366Z,925.35
2017-05-18T17:29:55.749Z,925.32
2017-05-18T17:30:15.725Z,925.31
2017-05-18T17:30:35.727Z,925.35
2017-05-18T17:30:55.759Z,925.37
2017-05-18T17:31:15.725Z,925.35
2017-05-18T17:31:35.179Z,925.32
2017-05-18T17:31:55.151Z,925.36
2017-05-18T17:32:15.148Z,925.34
2017-05-18T17:32:34.580Z,925.38
2017-05-18T17:32:54.021Z,925.41
2017-05-18T17:33:12.869Z,925.38
2017-05-18T17:33:32.840Z,925.38
2017-05-18T17:33:52.818Z,925.38
2017-05-18T17:34:12.818Z,925.37
2017-05-18T17:34:32.098Z,925.37
2017-05-18T17:34:52.549Z,925.37
2017-05-18T17:35:12.035Z,925.37
2017-05-18T17:35:32.599Z,925.36
2017-05-18T17:35:52.093Z,925.37
2017-05-18T17:36:12.080Z,925.37
2017-05-18T17:36:33.260Z,925.37
2017-05-18T17:36:54.803Z,925.4
2017-05-18T17:37:14.927Z,925.41
2017-05-18T17:37:34.950Z,925.4
2017-05-18T17:37:55.028Z,925.42
2017-05-18T17:38:15.287Z,925.43
2017-05-18T17:38:35.991Z,925.38
2017-05-18T17:38:56.025Z,925.41
2017-05-18T17:39:15.800Z,925.42
2017-05-18T17:39:35.999Z,925.46
2017-05-18T17:39:56.229Z,925.45
2017-05-18T17:40:16.213Z,925.46
2017-05-18T17:40:36.197Z,925.47
2017-05-18T17:40:56.309Z,925.47
2017-05-18T17:41:16.318Z,925.51
2017-05-18T17:41:36.274Z,925.53
2017-05-18T17:41:56.318Z,925.54
2017-05-18T17:42:16.265Z,925.53
2017-05-18T17:42:36.278Z,925.53
2017-05-18T17:42:56.947Z,925.54
2017-05-18T17:43:17.764Z,925.56
2017-05-18T17:43:38.678Z,925.57
2017-05-18T17:43:59.235Z,925.57
2017-05-18T17:44:19.346Z,925.52
2017-05-18T17:44:39.631Z,925.59
2017-05-18T17:44:59.811Z,925.54
2017-05-18T17:45:21.297Z,925.51
2017-05-18T17:45:42.080Z,925.54
2017-05-18T17:46:02.597Z,925.51
2017-05-18T17:46:22.644Z,925.5
2017-05-18T17:46:43.198Z,925.5
2017-05-18T17:47:04.455Z,925.52
2017-05-18T17:47:24.193Z,925.52
2017-05-18T17:47:44.295Z,925.51
2017-05-18T17:48:03.748Z,925.47
2017-05-18T17:48:23.702Z,925.45
2017-05-18T17:48:43.718Z,925.47
2017-05-18T17:49:03.767Z,925.45
2017-05-18T17:49:23.198Z,925.44
2017-05-18T17:49:43.387Z,925.43
2017-05-18T17:50:03.347Z,925.46
2017-05-18T17:50:22.736Z,925.47
2017-05-18T17:50:42.798Z,925.45
2017-05-18T17:51:02.885Z,925.44
2017-05-18T17:51:22.858Z,925.46
2017-05-18T17:51:42.827Z,925.48
2017-05-18T17:52:02.265Z,925.43
2017-05-18T17:52:22.234Z,925.47
2017-05-18T17:52:41.070Z,925.49
2017-05-18T17:53:01.058Z,925.48
2017-05-18T17:53:21.032Z,925.48
2017-05-18T17:53:41.025Z,925.52
2017-05-18T17:54:00.467Z,925.49
2017-05-18T17:54:19.416Z,925.54
2017-05-18T17:54:39.419Z,925.5
2017-05-18T17:54:59.124Z,925.53
2017-05-18T17:55:19.161Z,925.53
2017-05-18T17:55:38.540Z,925.57
2017-05-18T17:55:58.555Z,925.58
2017-05-18T17:56:18.076Z,925.56
2017-05-18T17:56:38.065Z,925.58
2017-05-18T17:56:57.504Z,925.59
2017-05-18T17:57:17.524Z,925.62
2017-05-18T17:57:37.497Z,925.6
2017-05-18T17:57:56.825Z,925.62
2017-05-18T17:58:15.089Z,925.61
2017-05-18T17:58:34.373Z,925.66
2017-05-18T17:58:53.639Z,925.66
2017-05-18T17:59:12.466Z,925.66
2017-05-18T17:59:31.811Z,925.67
2017-05-18T18:00:05.399Z,925.68
2017-05-18T18:00:24.783Z,925.67
2017-05-18T18:00:43.741Z,925.72
2017-05-18T18:01:03.036Z,925.72
2017-05-18T18:01:21.883Z,925.76
2017-05-18T18:01:40.733Z,925.73
2017-05-18T18:02:00.578Z,925.69
2017-05-18T18:02:19.839Z,925.69
2017-05-18T18:02:39.129Z,925.72
2017-05-18T18:02:58.724Z,925.72
2017-05-18T18:03:17.788Z,925.74
2017-05-18T18:03:37.096Z,925.72
2017-05-18T18:03:56.690Z,925.74
2017-05-18T18:04:15.748Z,925.74
2017-05-18T18:04:35.083Z,925.76
2017-05-18T18:04:54.549Z,925.74
2017-05-18T18:05:13.895Z,925.69
2017-05-18T18:05:32.981Z,925.7
2017-05-18T18:05:53.903Z,925.74
2017-05-18T18:06:13.204Z,925.7
2017-05-18T18:06:32.828Z,925.73
2017-05-18T18:06:52.514Z,925.74
2017-05-18T18:07:11.902Z,925.69
2017-05-18T18:07:31.677Z,925.69
2017-05-18T18:07:51.110Z,925.71
2017-05-18T18:08:10.546Z,925.69
2017-05-18T18:08:29.340Z,925.67
2017-05-18T18:08:48.085Z,925.66
2017-05-18T18:09:06.860Z,925.68
2017-05-18T18:09:26.196Z,925.72
2017-05-18T18:09:45.377Z,925.68
2017-05-18T18:10:04.681Z,925.69
2017-05-18T18:10:23.535Z,925.66
2017-05-18T18:10:42.862Z,925.65
2017-05-18T18:11:02.130Z,925.68
2017-05-18T18:11:21.399Z,925.67
2017-05-18T18:11:40.667Z,925.66
2017-05-18T18:11:59.935Z,925.71
2017-05-18T18:12:19.256Z,925.72
2017-05-18T18:12:38.557Z,925.69
2017-05-18T18:12:57.869Z,925.67
2017-05-18T18:13:17.227Z,925.65
2017-05-18T18:13:36.506Z,925.66
2017-05-18T18:13:55.782Z,925.64
2017-05-18T18:14:14.006Z,925.66
2017-05-18T18:14:33.334Z,925.68
2017-05-18T18:14:52.631Z,925.65
2017-05-18T18:15:11.434Z,925.66
2017-05-18T18:15:30.782Z,925.67
2017-05-18T18:15:50.252Z,925.74
2017-05-18T18:16:09.073Z,925.68
2017-05-18T18:16:28.399Z,925.71
2017-05-18T18:16:47.846Z,925.75
2017-05-18T18:17:07.268Z,925.73
2017-05-18T18:17:25.593Z,925.74
2017-05-18T18:17:44.911Z,925.72
2017-05-18T18:18:04.326Z,925.68
2017-05-18T18:18:23.132Z,925.7
2017-05-18T18:18:42.476Z,925.73
2017-05-18T18:19:01.851Z,925.76
2017-05-18T18:19:20.700Z,925.72
2017-05-18T18:19:40.082Z,925.71
2017-05-18T18:19:59.449Z,925.74
2017-05-18T18:20:18.875Z,925.75
2017-05-18T18:20:37.931Z,925.73
2017-05-18T18:20:57.470Z,925.76
2017-05-18T18:21:16.889Z,925.76
2017-05-18T18:21:36.367Z,925.75
2017-05-18T18:21:56.287Z,925.71
2017-05-18T18:22:15.103Z,925.7
2017-05-18T18:22:33.927Z,925.73
2017-05-18T18:22:53.280Z,925.71
2017-05-18T18:23:12.204Z,925.74
2017-05-18T18:23:31.166Z,925.72
2017-05-18T18:23:50.477Z,925.71
2017-05-18T18:24:09.771Z,925.74
2017-05-18T18:24:29.152Z,925.74
2017-05-18T18:24:48.741Z,925.74
2017-05-18T18:25:07.601Z,925.72
2017-05-18T18:25:25.923Z,925.69
2017-05-18T18:25:45.468Z,925.71
2017-05-18T18:26:05.848Z,925.69
2017-05-18T18:26:25.241Z,925.69
2017-05-18T18:26:44.567Z,925.67
2017-05-18T18:27:03.460Z,925.65
2017-05-18T18:27:22.848Z,925.65
2017-05-18T18:27:42.217Z,925.62
2017-05-18T18:28:03.458Z,925.61
2017-05-18T18:28:55.104Z,925.59
2017-05-18T18:29:14.557Z,925.63
2017-05-18T18:29:34.892Z,925.55
2017-05-18T18:29:54.316Z,925.53
2017-05-18T18:30:13.172Z,925.55
2017-05-18T18:30:32.755Z,925.55
2017-05-18T18:30:52.163Z,925.55
2017-05-18T18:31:11.553Z,925.5
2017-05-18T18:31:30.754Z,925.51
2017-05-18T18:32:04.498Z,925.49
2017-05-18T18:32:23.563Z,925.45
2017-05-18T18:32:43.338Z,925.45
2017-05-18T18:33:02.279Z,925.42
2017-05-18T18:33:22.041Z,925.43
2017-05-18T18:33:41.379Z,925.39
2017-05-18T18:34:00.205Z,925.4
2017-05-18T18:34:19.576Z,925.39
2017-05-18T18:34:38.913Z,925.34
2017-05-18T18:34:58.882Z,925.34
2017-05-18T18:35:18.911Z,925.35
2017-05-18T18:35:38.741Z,925.39
2017-05-18T18:35:58.418Z,925.41
2017-05-18T18:36:17.758Z,925.39
2017-05-18T18:36:36.615Z,925.42
2017-05-18T18:36:55.561Z,925.38
2017-05-18T18:37:15.339Z,925.34
2017-05-18T18:37:34.841Z,925.38
2017-05-18T18:37:54.384Z,925.32
2017-05-18T18:38:14.321Z,925.31
2017-05-18T18:38:33.729Z,925.27
2017-05-18T18:38:52.079Z,925.27
2017-05-18T18:39:10.886Z,925.26
2017-05-18T18:39:30.269Z,925.21
2017-05-18T18:39:49.618Z,925.24
2017-05-18T18:40:08.517Z,925.22
2017-05-18T18:40:27.929Z,925.21
2017-05-18T18:40:47.319Z,925.2
2017-05-18T18:41:06.706Z,925.2
2017-05-18T18:41:26.175Z,925.17
2017-05-18T18:41:45.041Z,925.21
2017-05-18T18:42:04.388Z,925.21
2017-05-18T18:42:22.154Z,925.22
2017-05-18T18:42:41.510Z,925.19
2017-05-18T18:43:00.960Z,925.19
2017-05-18T18:43:20.324Z,925.19
2017-05-18T18:43:39.249Z,925.18
2017-05-18T18:43:58.091Z,925.18
2017-05-18T18:44:16.892Z,925.21
2017-05-18T18:44:36.310Z,925.2
2017-05-18T18:44:55.110Z,925.25
2017-05-18T18:45:14.483Z,925.14
2017-05-18T18:45:33.886Z,925.22
2017-05-18T18:45:53.333Z,925.19
2017-05-18T18:46:12.755Z,925.17
2017-05-18T18:46:32.069Z,925.12
2017-05-18T18:47:05.407Z,925.1
2017-05-18T18:47:24.392Z,925.09
2017-05-18T18:47:42.841Z,925.07
2017-05-18T18:48:02.137Z,925.07
2017-05-18T18:48:20.387Z,925.08
2017-05-18T18:48:38.640Z,925.06
2017-05-18T18:48:57.405Z,925.03
2017-05-18T18:49:16.697Z,925.01
2017-05-18T18:49:35.463Z,925.04
2017-05-18T18:49:55.095Z,925.02
2017-05-18T18:50:14.429Z,925.05
2017-05-18T18:50:33.731Z,925.06
2017-05-18T18:50:52.994Z,925.07
2017-05-18T18:51:12.309Z,925.08
2017-05-18T18:51:31.068Z,925.06
2017-05-18T18:51:50.311Z,925.02
2017-05-18T18:52:09.564Z,925.04
2017-05-18T18:52:28.839Z,925.12
2017-05-18T18:52:48.132Z,925.04
2017-05-18T18:53:07.478Z,925.05
2017-05-18T18:53:26.826Z,925.05
2017-05-18T18:53:46.126Z,925.05
2017-05-18T18:54:05.467Z,925.07
2017-05-18T18:54:23.741Z,925.04
2017-05-18T18:54:43.074Z,925.03
2017-05-18T18:55:02.341Z,925.01
2017-05-18T18:55:20.578Z,924.99
2017-05-18T18:55:39.882Z,925.01
2017-05-18T18:55:59.196Z,925
2017-05-18T18:56:17.484Z,925.04
2017-05-18T18:56:36.763Z,925.02
2017-05-18T18:56:56.055Z,925
2017-05-18T18:57:14.819Z,924.97
2017-05-18T18:57:34.150Z,925.02
2017-05-18T18:57:53.444Z,925.01
2017-05-18T18:58:12.198Z,925
2017-05-18T18:58:31.528Z,925.02
2017-05-18T18:58:50.798Z,925.01
2017-05-18T18:59:10.099Z,925.02
2017-05-18T18:59:29.346Z,925.05
2017-05-18T18:59:48.763Z,925.03
2017-05-18T19:00:06.982Z,925.04
2017-05-18T19:00:26.317Z,925.02
2017-05-18T19:00:45.569Z,925.01
2017-05-18T19:01:04.927Z,925.03
2017-05-18T19:01:23.728Z,924.99
2017-05-18T19:01:42.522Z,925.04
2017-05-18T19:02:00.788Z,924.99
2017-05-18T19:02:20.072Z,925.02
2017-05-18T19:02:39.331Z,924.99
2017-05-18T19:02:58.114Z,925.01
2017-05-18T19:03:17.439Z,925.01
2017-05-18T19:03:36.813Z,924.96
2017-05-18T19:03:56.095Z,924.95
2017-05-18T19:04:15.370Z,924.96
2017-05-18T19:04:34.116Z,924.96
2017-05-18T19:04:52.931Z,924.93
2017-05-18T19:05:12.229Z,925
2017-05-18T19:05:31.522Z,924.93
2017-05-18T19:05:50.865Z,924.93
2017-05-18T19:06:10.192Z,924.92
2017-05-18T19:06:29.493Z,924.96
2017-05-18T19:06:48.839Z,924.9
2017-05-18T19:07:08.152Z,924.9
2017-05-18T19:07:26.950Z,924.89
2017-05-18T19:07:45.588Z,924.94
2017-05-18T19:08:04.955Z,924.91
2017-05-18T19:08:23.563Z,924.93
2017-05-18T19:08:42.316Z,924.91
2017-05-18T19:09:01.601Z,924.9
2017-05-18T19:09:20.939Z,924.98
2017-05-18T19:09:40.307Z,924.95
2017-05-18T19:09:59.800Z,924.95
2017-05-18T19:10:19.104Z,924.94
2017-05-18T19:10:38.371Z,924.96
2017-05-18T19:10:57.679Z,924.94
2017-05-18T19:11:16.973Z,924.94
2017-05-18T19:11:35.859Z,924.92
2017-05-18T19:11:56.268Z,924.94
2017-05-18T19:12:15.042Z,924.9
2017-05-18T19:12:34.344Z,924.9
2017-05-18T19:12:53.685Z,924.94
2017-05-18T19:13:12.931Z,924.92
2017-05-18T19:13:31.248Z,924.94
2017-05-18T19:13:50.600Z,924.91
2017-05-18T19:14:09.522Z,924.93
2017-05-18T19:14:28.464Z,924.95
2017-05-18T19:14:47.780Z,924.88
2017-05-18T19:15:07.195Z,924.91
2017-05-18T19:15:26.066Z,924.94
2017-05-18T19:15:44.847Z,924.94
2017-05-18T19:16:04.507Z,924.88
2017-05-18T19:16:23.298Z,924.92
2017-05-18T19:16:42.165Z,924.93
2017-05-18T19:17:01.506Z,925
2017-05-18T19:17:19.961Z,925.02
2017-05-18T19:17:38.748Z,924.97
2017-05-18T19:17:58.002Z,924.98
2017-05-18T19:18:17.327Z,924.99
2017-05-18T19:18:36.560Z,924.99
2017-05-18T19:18:54.848Z,925.02
2017-05-18T19:19:14.121Z,925.05
2017-05-18T19:19:33.383Z,925.07
2017-05-18T19:19:52.805Z,925.09
2017-05-18T19:20:12.185Z,925.07
2017-05-18T19:20:31.486Z,925.08
2017-05-18T19:20:50.244Z,925.14
2017-05-18T19:21:09.579Z,925.16
2017-05-18T19:21:28.835Z,925.19
2017-05-18T19:21:48.072Z,925.18
2017-05-18T19:22:07.387Z,925.19
2017-05-18T19:22:25.635Z,925.16
2017-05-18T19:22:44.895Z,925.17
2017-05-18T19:23:04.157Z,925.21
2017-05-18T19:23:22.924Z,925.2
2017-05-18T19:23:42.220Z,925.18
2017-05-18T19:24:01.518Z,925.22
2017-05-18T19:24:19.777Z,925.19
2017-05-18T19:24:38.568Z,925.12
2017-05-18T19:24:57.890Z,925.13
2017-05-18T19:25:17.106Z,925.18
2017-05-18T19:25:37.116Z,925.16
2017-05-18T19:25:56.436Z,925.16
2017-05-18T19:26:15.721Z,925.17
2017-05-18T19:26:35.042Z,925.17
2017-05-18T19:26:54.416Z,925.21
2017-05-18T19:27:13.683Z,925.18
2017-05-18T19:27:32.955Z,925.14
2017-05-18T19:27:52.356Z,925.16
2017-05-18T19:28:11.940Z,925.18
2017-05-18T19:28:31.275Z,925.17
2017-05-18T19:28:50.602Z,925.18
2017-05-18T19:29:09.046Z,925.19
2017-05-18T19:29:28.430Z,925.2
2017-05-18T19:29:47.830Z,925.17
2017-05-18T19:30:07.452Z,925.21
2017-05-18T19:30:26.836Z,925.19
2017-05-18T19:30:45.642Z,925.18
2017-05-18T19:31:04.895Z,925.18
2017-05-18T19:31:24.232Z,925.21
2017-05-18T19:31:43.637Z,925.21
2017-05-18T19:32:02.952Z,925.26
2017-05-18T19:32:22.285Z,925.25
2017-05-18T19:32:41.678Z,925.22
2017-05-18T19:33:00.448Z,925.28
2017-05-18T19:33:19.748Z,925.24
2017-05-18T19:33:38.121Z,925.23
2017-05-18T19:33:57.559Z,925.22
2017-05-18T19:34:16.921Z,925.23
2017-05-18T19:34:36.237Z,925.22
2017-05-18T19:34:55.696Z,925.27
2017-05-18T19:35:15.045Z,925.26
2017-05-18T19:35:34.365Z,925.25
2017-05-18T19:35:53.733Z,925.26
2017-05-18T19:36:13.068Z,925.27
2017-05-18T19:36:32.405Z,925.27
2017-05-18T19:36:51.736Z,925.28
2017-05-18T19:37:11.019Z,925.29
2017-05-18T19:37:30.343Z,925.26
2017-05-18T19:37:48.659Z,925.28
2017-05-18T19:38:07.987Z,925.29
2017-05-18T19:38:26.274Z,925.28
2017-05-18T19:38:45.590Z,925.26
2017-05-18T19:39:04.841Z,925.26
2017-05-18T19:39:23.138Z,925.34
2017-05-18T19:39:42.419Z,925.33
2017-05-18T19:40:01.211Z,925.34
2017-05-18T19:40:19.946Z,925.33
2017-05-18T19:40:39.214Z,925.36
2017-05-18T19:40:58.470Z,925.35
2017-05-18T19:41:17.273Z,925.36
2017-05-18T19:41:36.606Z,925.4
2017-05-18T19:41:55.950Z,925.38
2017-05-18T19:42:14.228Z,925.41
2017-05-18T19:42:33.537Z,925.41
2017-05-18T19:42:52.803Z,925.37
2017-05-18T19:43:12.112Z,925.39
2017-05-18T19:43:31.411Z,925.41
2017-05-18T19:43:50.182Z,925.41
2017-05-18T19:44:09.477Z,925.44